sensor_id;sensor_type;location;lat;lon;timestamp;P1;durP1;ratioP1;P2;durP2;ratioP2
8066;SDS011;4076;48.076;9.118;2023-03-24T00:01:59;4.93;;;2.80;;
8066;SDS011;4076;48.076;9.118;2023-03-24T00:04:24;7.73;;;4.00;;
8066;SDS011;4076;48.076;9.118;2023-03-24T00:06:51;4.83;;;2.90;;
8066;SDS011;4076;48.076;9.118;2023-03-24T00:09:18;5.07;;;2.70;;
8066;SDS011;4076;48.076;9.118;2023-03-24T00:11:43;6.43;;;3.43;;
8066;SDS011;4076;48.076;9.118;2023-03-24T00:14:09;8.10;;;4.50;;
8066;SDS011;4076;48.076;9.118;2023-03-24T00:16:36;6.47;;;3.30;;
8066;SDS011;4076;48.076;9.118;2023-03-24T00:19:06;8.40;;;4.77;;
8066;SDS011;4076;48.076;9.118;2023-03-24T00:21:35;7.30;;;3.90;;
8066;SDS011;4076;48.076;9.118;2023-03-24T00:24:01;4.90;;;2.93;;
8066;SDS011;4076;48.076;9.118;2023-03-24T00:26:29;7.80;;;3.87;;
8066;SDS011;4076;48.076;9.118;2023-03-24T00:28:55;5.70;;;2.80;;
8066;SDS011;4076;48.076;9.118;2023-03-24T00:31:22;6.83;;;3.33;;
8066;SDS011;4076;48.076;9.118;2023-03-24T00:33:48;5.27;;;2.80;;
8066;SDS011;4076;48.076;9.118;2023-03-24T00:36:18;6.67;;;3.83;;
8066;SDS011;4076;48.076;9.118;2023-03-24T00:38:45;5.50;;;3.40;;
8066;SDS011;4076;48.076;9.118;2023-03-24T00:41:12;7.17;;;3.63;;
8066;SDS011;4076;48.076;9.118;2023-03-24T00:43:38;6.33;;;3.50;;
8066;SDS011;4076;48.076;9.118;2023-03-24T00:46:07;5.43;;;3.40;;
8066;SDS011;4076;48.076;9.118;2023-03-24T00:48:36;5.30;;;2.90;;
8066;SDS011;4076;48.076;9.118;2023-03-24T00:51:03;6.83;;;4.13;;
8066;SDS011;4076;48.076;9.118;2023-03-24T00:53:32;5.80;;;2.43;;
8066;SDS011;4076;48.076;9.118;2023-03-24T00:55:59;5.53;;;2.63;;
8066;SDS011;4076;48.076;9.118;2023-03-24T00:58:25;7.70;;;4.37;;
8066;SDS011;4076;48.076;9.118;2023-03-24T01:00:54;5.80;;;2.97;;
8066;SDS011;4076;48.076;9.118;2023-03-24T01:03:21;4.67;;;2.40;;
8066;SDS011;4076;48.076;9.118;2023-03-24T01:05:51;5.47;;;3.63;;
8066;SDS011;4076;48.076;9.118;2023-03-24T01:08:21;6.70;;;3.37;;
8066;SDS011;4076;48.076;9.118;2023-03-24T01:10:49;5.97;;;3.30;;
8066;SDS011;4076;48.076;9.118;2023-03-24T01:13:17;6.00;;;3.10;;
8066;SDS011;4076;48.076;9.118;2023-03-24T01:15:53;7.10;;;2.67;;
8066;SDS011;4076;48.076;9.118;2023-03-24T01:18:19;8.00;;;3.67;;
8066;SDS011;4076;48.076;9.118;2023-03-24T01:20:46;5.60;;;3.40;;
8066;SDS011;4076;48.076;9.118;2023-03-24T01:23:16;6.00;;;3.47;;
8066;SDS011;4076;48.076;9.118;2023-03-24T01:25:44;4.40;;;2.80;;
8066;SDS011;4076;48.076;9.118;2023-03-24T01:28:12;9.73;;;3.00;;
8066;SDS011;4076;48.076;9.118;2023-03-24T01:30:39;5.67;;;2.70;;
8066;SDS011;4076;48.076;9.118;2023-03-24T01:33:05;4.57;;;2.47;;
8066;SDS011;4076;48.076;9.118;2023-03-24T01:35:31;6.10;;;3.30;;
8066;SDS011;4076;48.076;9.118;2023-03-24T01:37:57;5.87;;;3.23;;
8066;SDS011;4076;48.076;9.118;2023-03-24T01:40:24;5.97;;;3.37;;
8066;SDS011;4076;48.076;9.118;2023-03-24T01:42:52;5.20;;;3.10;;
8066;SDS011;4076;48.076;9.118;2023-03-24T01:48:02;8.70;;;3.97;;
8066;SDS011;4076;48.076;9.118;2023-03-24T01:50:29;6.70;;;3.80;;
8066;SDS011;4076;48.076;9.118;2023-03-24T01:52:56;8.20;;;3.87;;
8066;SDS011;4076;48.076;9.118;2023-03-24T01:55:22;4.77;;;2.57;;
8066;SDS011;4076;48.076;9.118;2023-03-24T01:57:50;5.57;;;2.93;;
8066;SDS011;4076;48.076;9.118;2023-03-24T02:00:19;5.40;;;3.50;;
8066;SDS011;4076;48.076;9.118;2023-03-24T02:02:46;8.37;;;3.60;;
8066;SDS011;4076;48.076;9.118;2023-03-24T02:05:19;5.70;;;3.60;;
8066;SDS011;4076;48.076;9.118;2023-03-24T02:07:52;5.17;;;3.27;;
8066;SDS011;4076;48.076;9.118;2023-03-24T02:10:19;7.63;;;2.97;;
8066;SDS011;4076;48.076;9.118;2023-03-24T02:12:47;6.13;;;2.73;;
8066;SDS011;4076;48.076;9.118;2023-03-24T02:15:13;6.67;;;3.63;;
8066;SDS011;4076;48.076;9.118;2023-03-24T02:28:40;5.50;;;3.37;;
8066;SDS011;4076;48.076;9.118;2023-03-24T02:31:57;6.83;;;3.17;;
8066;SDS011;4076;48.076;9.118;2023-03-24T02:42:53;5.00;;;2.50;;
8066;SDS011;4076;48.076;9.118;2023-03-24T02:56:20;4.87;;;3.27;;
8066;SDS011;4076;48.076;9.118;2023-03-24T02:58:55;5.27;;;3.10;;
8066;SDS011;4076;48.076;9.118;2023-03-24T03:01:27;6.50;;;4.07;;
8066;SDS011;4076;48.076;9.118;2023-03-24T03:04:18;6.80;;;4.33;;
8066;SDS011;4076;48.076;9.118;2023-03-24T03:06:45;7.07;;;3.90;;
8066;SDS011;4076;48.076;9.118;2023-03-24T03:09:17;7.53;;;3.40;;
8066;SDS011;4076;48.076;9.118;2023-03-24T03:11:46;7.47;;;3.77;;
8066;SDS011;4076;48.076;9.118;2023-03-24T03:14:17;6.40;;;3.60;;
8066;SDS011;4076;48.076;9.118;2023-03-24T03:17:20;6.37;;;3.67;;
8066;SDS011;4076;48.076;9.118;2023-03-24T03:19:44;6.67;;;3.30;;
8066;SDS011;4076;48.076;9.118;2023-03-24T03:22:15;6.07;;;3.60;;
8066;SDS011;4076;48.076;9.118;2023-03-24T03:24:45;9.23;;;4.80;;
8066;SDS011;4076;48.076;9.118;2023-03-24T03:27:18;6.50;;;3.43;;
8066;SDS011;4076;48.076;9.118;2023-03-24T03:29:52;7.83;;;4.40;;
8066;SDS011;4076;48.076;9.118;2023-03-24T03:32:25;8.07;;;4.37;;
8066;SDS011;4076;48.076;9.118;2023-03-24T03:34:55;6.47;;;3.67;;
8066;SDS011;4076;48.076;9.118;2023-03-24T03:37:32;6.60;;;3.80;;
8066;SDS011;4076;48.076;9.118;2023-03-24T03:40:09;6.37;;;4.20;;
8066;SDS011;4076;48.076;9.118;2023-03-24T03:42:39;8.70;;;6.10;;
8066;SDS011;4076;48.076;9.118;2023-03-24T03:45:06;6.00;;;4.00;;
8066;SDS011;4076;48.076;9.118;2023-03-24T03:47:33;7.67;;;4.80;;
8066;SDS011;4076;48.076;9.118;2023-03-24T03:49:59;9.93;;;5.70;;
8066;SDS011;4076;48.076;9.118;2023-03-24T03:52:25;9.90;;;6.17;;
8066;SDS011;4076;48.076;9.118;2023-03-24T03:54:51;7.47;;;4.30;;
8066;SDS011;4076;48.076;9.118;2023-03-24T03:57:17;7.90;;;4.40;;
8066;SDS011;4076;48.076;9.118;2023-03-24T03:59:44;7.13;;;4.10;;
8066;SDS011;4076;48.076;9.118;2023-03-24T04:02:26;7.27;;;3.73;;
8066;SDS011;4076;48.076;9.118;2023-03-24T04:05:29;6.90;;;4.00;;
8066;SDS011;4076;48.076;9.118;2023-03-24T04:18:31;7.87;;;3.80;;
8066;SDS011;4076;48.076;9.118;2023-03-24T04:21:30;8.33;;;4.37;;
8066;SDS011;4076;48.076;9.118;2023-03-24T04:27:43;7.10;;;4.40;;
8066;SDS011;4076;48.076;9.118;2023-03-24T04:32:56;6.33;;;3.63;;
8066;SDS011;4076;48.076;9.118;2023-03-24T04:38:08;7.37;;;3.90;;
8066;SDS011;4076;48.076;9.118;2023-03-24T04:40:37;10.47;;;5.77;;
8066;SDS011;4076;48.076;9.118;2023-03-24T04:43:06;9.27;;;5.67;;
8066;SDS011;4076;48.076;9.118;2023-03-24T04:45:37;9.10;;;5.50;;
8066;SDS011;4076;48.076;9.118;2023-03-24T04:48:04;7.70;;;4.73;;
8066;SDS011;4076;48.076;9.118;2023-03-24T04:50:35;7.40;;;4.63;;
8066;SDS011;4076;48.076;9.118;2023-03-24T04:53:03;8.97;;;5.33;;
8066;SDS011;4076;48.076;9.118;2023-03-24T04:55:47;7.53;;;4.50;;
8066;SDS011;4076;48.076;9.118;2023-03-24T04:58:17;8.27;;;5.50;;
8066;SDS011;4076;48.076;9.118;2023-03-24T05:00:45;9.67;;;5.47;;
8066;SDS011;4076;48.076;9.118;2023-03-24T05:03:11;9.57;;;5.83;;
8066;SDS011;4076;48.076;9.118;2023-03-24T05:05:38;8.20;;;5.00;;
8066;SDS011;4076;48.076;9.118;2023-03-24T05:08:05;7.80;;;5.67;;
8066;SDS011;4076;48.076;9.118;2023-03-24T05:10:32;12.60;;;5.53;;
8066;SDS011;4076;48.076;9.118;2023-03-24T05:12:58;10.47;;;6.33;;
8066;SDS011;4076;48.076;9.118;2023-03-24T05:15:24;8.60;;;5.37;;
8066;SDS011;4076;48.076;9.118;2023-03-24T05:17:50;8.60;;;4.70;;
8066;SDS011;4076;48.076;9.118;2023-03-24T05:20:16;7.33;;;4.27;;
8066;SDS011;4076;48.076;9.118;2023-03-24T05:22:43;7.80;;;4.50;;
8066;SDS011;4076;48.076;9.118;2023-03-24T05:25:08;7.67;;;4.37;;
8066;SDS011;4076;48.076;9.118;2023-03-24T05:27:34;5.43;;;3.53;;
8066;SDS011;4076;48.076;9.118;2023-03-24T05:30:00;5.40;;;3.00;;
8066;SDS011;4076;48.076;9.118;2023-03-24T05:32:25;7.63;;;4.33;;
8066;SDS011;4076;48.076;9.118;2023-03-24T05:34:51;7.50;;;3.60;;
8066;SDS011;4076;48.076;9.118;2023-03-24T05:37:17;6.00;;;3.10;;
8066;SDS011;4076;48.076;9.118;2023-03-24T05:39:42;8.60;;;3.40;;
8066;SDS011;4076;48.076;9.118;2023-03-24T05:42:08;9.50;;;4.00;;
8066;SDS011;4076;48.076;9.118;2023-03-24T05:44:34;6.90;;;4.33;;
8066;SDS011;4076;48.076;9.118;2023-03-24T05:47:00;5.80;;;4.00;;
8066;SDS011;4076;48.076;9.118;2023-03-24T05:49:26;6.83;;;3.90;;
8066;SDS011;4076;48.076;9.118;2023-03-24T05:51:52;7.73;;;3.93;;
8066;SDS011;4076;48.076;9.118;2023-03-24T05:54:17;6.27;;;3.20;;
8066;SDS011;4076;48.076;9.118;2023-03-24T05:56:43;8.90;;;4.37;;
8066;SDS011;4076;48.076;9.118;2023-03-24T05:59:09;7.30;;;3.97;;
8066;SDS011;4076;48.076;9.118;2023-03-24T06:01:35;7.90;;;3.57;;
8066;SDS011;4076;48.076;9.118;2023-03-24T06:04:01;6.20;;;2.60;;
8066;SDS011;4076;48.076;9.118;2023-03-24T06:06:27;6.20;;;3.70;;
8066;SDS011;4076;48.076;9.118;2023-03-24T06:08:52;6.40;;;3.27;;
8066;SDS011;4076;48.076;9.118;2023-03-24T06:11:18;7.73;;;3.93;;
8066;SDS011;4076;48.076;9.118;2023-03-24T06:13:44;5.60;;;2.73;;
8066;SDS011;4076;48.076;9.118;2023-03-24T06:16:10;9.43;;;4.73;;
8066;SDS011;4076;48.076;9.118;2023-03-24T06:18:36;7.80;;;4.40;;
8066;SDS011;4076;48.076;9.118;2023-03-24T06:21:04;5.37;;;2.97;;
8066;SDS011;4076;48.076;9.118;2023-03-24T06:23:30;5.37;;;2.57;;
8066;SDS011;4076;48.076;9.118;2023-03-24T06:25:57;5.17;;;2.33;;
8066;SDS011;4076;48.076;9.118;2023-03-24T06:28:25;5.77;;;3.10;;
8066;SDS011;4076;48.076;9.118;2023-03-24T06:30:54;6.37;;;3.97;;
8066;SDS011;4076;48.076;9.118;2023-03-24T06:33:22;5.30;;;2.10;;
8066;SDS011;4076;48.076;9.118;2023-03-24T06:35:50;3.97;;;1.93;;
8066;SDS011;4076;48.076;9.118;2023-03-24T06:38:16;4.87;;;2.20;;
8066;SDS011;4076;48.076;9.118;2023-03-24T06:40:42;5.70;;;2.87;;
8066;SDS011;4076;48.076;9.118;2023-03-24T06:43:07;5.97;;;3.00;;
8066;SDS011;4076;48.076;9.118;2023-03-24T06:45:33;5.00;;;2.40;;
8066;SDS011;4076;48.076;9.118;2023-03-24T06:47:59;4.70;;;2.10;;
8066;SDS011;4076;48.076;9.118;2023-03-24T06:50:24;6.30;;;3.00;;
8066;SDS011;4076;48.076;9.118;2023-03-24T06:52:53;5.63;;;3.10;;
8066;SDS011;4076;48.076;9.118;2023-03-24T06:55:19;5.10;;;2.30;;
8066;SDS011;4076;48.076;9.118;2023-03-24T06:57:46;5.07;;;2.40;;
8066;SDS011;4076;48.076;9.118;2023-03-24T07:00:12;5.20;;;2.40;;
8066;SDS011;4076;48.076;9.118;2023-03-24T07:02:37;4.87;;;2.37;;
8066;SDS011;4076;48.076;9.118;2023-03-24T07:05:04;5.43;;;1.90;;
8066;SDS011;4076;48.076;9.118;2023-03-24T07:07:31;5.27;;;2.37;;
8066;SDS011;4076;48.076;9.118;2023-03-24T07:09:57;5.60;;;2.57;;
8066;SDS011;4076;48.076;9.118;2023-03-24T07:12:23;4.90;;;2.00;;
8066;SDS011;4076;48.076;9.118;2023-03-24T07:14:49;4.70;;;1.97;;
8066;SDS011;4076;48.076;9.118;2023-03-24T07:17:14;4.93;;;2.70;;
8066;SDS011;4076;48.076;9.118;2023-03-24T07:19:40;6.50;;;3.40;;
8066;SDS011;4076;48.076;9.118;2023-03-24T07:22:06;5.57;;;2.80;;
8066;SDS011;4076;48.076;9.118;2023-03-24T07:24:32;5.33;;;2.80;;
8066;SDS011;4076;48.076;9.118;2023-03-24T07:26:59;5.43;;;2.63;;
8066;SDS011;4076;48.076;9.118;2023-03-24T07:29:25;6.00;;;3.07;;
8066;SDS011;4076;48.076;9.118;2023-03-24T07:31:50;6.70;;;3.90;;
8066;SDS011;4076;48.076;9.118;2023-03-24T07:34:18;7.50;;;3.17;;
8066;SDS011;4076;48.076;9.118;2023-03-24T07:36:44;5.67;;;3.13;;
8066;SDS011;4076;48.076;9.118;2023-03-24T07:39:10;5.43;;;2.80;;
8066;SDS011;4076;48.076;9.118;2023-03-24T07:41:37;8.90;;;4.20;;
8066;SDS011;4076;48.076;9.118;2023-03-24T07:44:02;6.63;;;3.40;;
8066;SDS011;4076;48.076;9.118;2023-03-24T07:46:28;5.77;;;2.70;;
8066;SDS011;4076;48.076;9.118;2023-03-24T07:48:54;5.47;;;2.97;;
8066;SDS011;4076;48.076;9.118;2023-03-24T07:51:19;6.50;;;3.30;;
8066;SDS011;4076;48.076;9.118;2023-03-24T07:53:45;7.00;;;3.47;;
8066;SDS011;4076;48.076;9.118;2023-03-24T07:56:11;5.83;;;3.53;;
8066;SDS011;4076;48.076;9.118;2023-03-24T07:58:38;7.40;;;2.80;;
8066;SDS011;4076;48.076;9.118;2023-03-24T08:01:05;5.37;;;3.40;;
8066;SDS011;4076;48.076;9.118;2023-03-24T08:03:33;5.90;;;3.67;;
8066;SDS011;4076;48.076;9.118;2023-03-24T08:06:00;5.87;;;3.40;;
8066;SDS011;4076;48.076;9.118;2023-03-24T08:08:26;5.20;;;3.00;;
8066;SDS011;4076;48.076;9.118;2023-03-24T08:10:51;6.17;;;3.97;;
8066;SDS011;4076;48.076;9.118;2023-03-24T08:13:17;7.27;;;3.70;;
8066;SDS011;4076;48.076;9.118;2023-03-24T08:15:42;6.87;;;3.37;;
8066;SDS011;4076;48.076;9.118;2023-03-24T08:18:08;4.37;;;2.43;;
8066;SDS011;4076;48.076;9.118;2023-03-24T08:20:34;7.20;;;2.50;;
8066;SDS011;4076;48.076;9.118;2023-03-24T08:22:59;5.30;;;2.17;;
8066;SDS011;4076;48.076;9.118;2023-03-24T08:25:28;4.67;;;2.13;;
8066;SDS011;4076;48.076;9.118;2023-03-24T08:27:54;3.93;;;1.60;;
8066;SDS011;4076;48.076;9.118;2023-03-24T08:30:21;4.63;;;2.20;;
8066;SDS011;4076;48.076;9.118;2023-03-24T08:32:50;4.97;;;2.10;;
8066;SDS011;4076;48.076;9.118;2023-03-24T08:35:18;4.47;;;1.70;;
8066;SDS011;4076;48.076;9.118;2023-03-24T08:37:49;4.40;;;1.90;;
8066;SDS011;4076;48.076;9.118;2023-03-24T08:40:16;4.50;;;1.97;;
8066;SDS011;4076;48.076;9.118;2023-03-24T08:42:47;4.50;;;2.00;;
8066;SDS011;4076;48.076;9.118;2023-03-24T08:45:14;7.83;;;2.27;;
8066;SDS011;4076;48.076;9.118;2023-03-24T08:47:40;5.23;;;3.40;;
8066;SDS011;4076;48.076;9.118;2023-03-24T08:50:06;4.10;;;1.50;;
8066;SDS011;4076;48.076;9.118;2023-03-24T08:52:33;4.87;;;2.10;;
8066;SDS011;4076;48.076;9.118;2023-03-24T08:54:58;5.43;;;1.60;;
8066;SDS011;4076;48.076;9.118;2023-03-24T08:57:24;4.13;;;1.53;;
8066;SDS011;4076;48.076;9.118;2023-03-24T08:59:50;4.40;;;1.70;;
8066;SDS011;4076;48.076;9.118;2023-03-24T09:02:16;4.97;;;2.53;;
8066;SDS011;4076;48.076;9.118;2023-03-24T09:04:41;4.67;;;1.70;;
8066;SDS011;4076;48.076;9.118;2023-03-24T09:07:08;10.03;;;2.00;;
8066;SDS011;4076;48.076;9.118;2023-03-24T09:09:34;3.83;;;1.50;;
8066;SDS011;4076;48.076;9.118;2023-03-24T09:12:00;4.67;;;1.87;;
8066;SDS011;4076;48.076;9.118;2023-03-24T09:14:25;4.50;;;1.90;;
8066;SDS011;4076;48.076;9.118;2023-03-24T09:16:51;4.50;;;1.87;;
8066;SDS011;4076;48.076;9.118;2023-03-24T09:19:16;6.50;;;3.27;;
8066;SDS011;4076;48.076;9.118;2023-03-24T09:21:42;6.53;;;2.60;;
8066;SDS011;4076;48.076;9.118;2023-03-24T09:24:12;6.00;;;2.33;;
8066;SDS011;4076;48.076;9.118;2023-03-24T09:26:38;6.00;;;2.73;;
8066;SDS011;4076;48.076;9.118;2023-03-24T09:29:04;6.50;;;3.43;;
8066;SDS011;4076;48.076;9.118;2023-03-24T09:31:30;5.10;;;2.60;;
8066;SDS011;4076;48.076;9.118;2023-03-24T09:33:55;6.27;;;2.77;;
8066;SDS011;4076;48.076;9.118;2023-03-24T09:36:21;5.90;;;2.40;;
8066;SDS011;4076;48.076;9.118;2023-03-24T09:38:47;8.00;;;3.00;;
8066;SDS011;4076;48.076;9.118;2023-03-24T09:41:14;5.70;;;2.87;;
8066;SDS011;4076;48.076;9.118;2023-03-24T09:43:46;6.50;;;2.63;;
8066;SDS011;4076;48.076;9.118;2023-03-24T09:46:22;7.07;;;3.13;;
8066;SDS011;4076;48.076;9.118;2023-03-24T09:49:08;6.10;;;2.80;;
8066;SDS011;4076;48.076;9.118;2023-03-24T09:51:39;5.00;;;2.60;;
8066;SDS011;4076;48.076;9.118;2023-03-24T09:54:10;5.30;;;2.60;;
8066;SDS011;4076;48.076;9.118;2023-03-24T09:56:43;5.30;;;2.50;;
8066;SDS011;4076;48.076;9.118;2023-03-24T10:01:43;4.67;;;2.10;;
8066;SDS011;4076;48.076;9.118;2023-03-24T10:04:13;4.90;;;2.03;;
8066;SDS011;4076;48.076;9.118;2023-03-24T10:06:42;4.87;;;2.70;;
8066;SDS011;4076;48.076;9.118;2023-03-24T10:09:21;4.60;;;2.30;;
8066;SDS011;4076;48.076;9.118;2023-03-24T10:20:40;4.63;;;2.67;;
8066;SDS011;4076;48.076;9.118;2023-03-24T10:26:01;3.70;;;1.87;;
8066;SDS011;4076;48.076;9.118;2023-03-24T10:31:25;4.17;;;2.33;;
8066;SDS011;4076;48.076;9.118;2023-03-24T10:33:54;3.40;;;1.40;;
8066;SDS011;4076;48.076;9.118;2023-03-24T10:36:20;4.37;;;1.70;;
8066;SDS011;4076;48.076;9.118;2023-03-24T10:38:47;4.30;;;1.50;;
8066;SDS011;4076;48.076;9.118;2023-03-24T10:41:20;4.80;;;2.20;;
8066;SDS011;4076;48.076;9.118;2023-03-24T10:43:48;3.97;;;1.60;;
8066;SDS011;4076;48.076;9.118;2023-03-24T10:46:17;4.30;;;1.50;;
8066;SDS011;4076;48.076;9.118;2023-03-24T10:48:49;3.80;;;1.60;;
8066;SDS011;4076;48.076;9.118;2023-03-24T10:51:18;3.40;;;1.23;;
8066;SDS011;4076;48.076;9.118;2023-03-24T10:53:46;4.70;;;1.73;;
8066;SDS011;4076;48.076;9.118;2023-03-24T10:56:35;3.90;;;1.67;;
8066;SDS011;4076;48.076;9.118;2023-03-24T10:59:03;7.73;;;1.60;;
8066;SDS011;4076;48.076;9.118;2023-03-24T11:01:45;3.10;;;1.23;;
8066;SDS011;4076;48.076;9.118;2023-03-24T11:04:12;4.90;;;2.00;;
8066;SDS011;4076;48.076;9.118;2023-03-24T11:06:53;3.77;;;1.47;;
8066;SDS011;4076;48.076;9.118;2023-03-24T11:09:45;3.37;;;1.23;;
8066;SDS011;4076;48.076;9.118;2023-03-24T11:12:23;5.60;;;1.63;;
8066;SDS011;4076;48.076;9.118;2023-03-24T11:14:50;3.90;;;1.53;;
8066;SDS011;4076;48.076;9.118;2023-03-24T11:17:24;3.70;;;1.10;;
8066;SDS011;4076;48.076;9.118;2023-03-24T11:19:51;4.20;;;1.77;;
8066;SDS011;4076;48.076;9.118;2023-03-24T11:22:18;3.70;;;1.33;;
8066;SDS011;4076;48.076;9.118;2023-03-24T11:24:46;4.90;;;2.03;;
8066;SDS011;4076;48.076;9.118;2023-03-24T11:27:16;3.80;;;1.40;;
8066;SDS011;4076;48.076;9.118;2023-03-24T11:29:43;4.30;;;1.47;;
8066;SDS011;4076;48.076;9.118;2023-03-24T11:32:15;4.87;;;1.67;;
8066;SDS011;4076;48.076;9.118;2023-03-24T11:34:53;3.80;;;1.40;;
8066;SDS011;4076;48.076;9.118;2023-03-24T11:37:37;4.50;;;1.97;;
8066;SDS011;4076;48.076;9.118;2023-03-24T11:42:49;4.30;;;1.40;;
8066;SDS011;4076;48.076;9.118;2023-03-24T11:47:57;4.20;;;1.50;;
8066;SDS011;4076;48.076;9.118;2023-03-24T11:50:30;3.70;;;1.30;;
8066;SDS011;4076;48.076;9.118;2023-03-24T11:53:14;5.93;;;2.23;;
8066;SDS011;4076;48.076;9.118;2023-03-24T11:55:52;4.10;;;1.50;;
8066;SDS011;4076;48.076;9.118;2023-03-24T11:58:34;7.73;;;2.87;;
8066;SDS011;4076;48.076;9.118;2023-03-24T12:04:05;6.43;;;3.10;;
8066;SDS011;4076;48.076;9.118;2023-03-24T12:15:19;4.53;;;2.20;;
8066;SDS011;4076;48.076;9.118;2023-03-24T12:23:24;5.83;;;3.27;;
8066;SDS011;4076;48.076;9.118;2023-03-24T12:26:10;6.63;;;3.77;;
8066;SDS011;4076;48.076;9.118;2023-03-24T12:32:04;4.07;;;2.30;;
8066;SDS011;4076;48.076;9.118;2023-03-24T12:34:53;3.03;;;1.00;;
8066;SDS011;4076;48.076;9.118;2023-03-24T12:40:00;3.73;;;1.10;;
8066;SDS011;4076;48.076;9.118;2023-03-24T12:42:40;4.17;;;1.20;;
8066;SDS011;4076;48.076;9.118;2023-03-24T12:53:45;3.20;;;0.90;;
8066;SDS011;4076;48.076;9.118;2023-03-24T12:56:18;3.30;;;0.97;;
8066;SDS011;4076;48.076;9.118;2023-03-24T12:58:55;3.50;;;1.07;;
8066;SDS011;4076;48.076;9.118;2023-03-24T13:04:06;3.50;;;0.90;;
8066;SDS011;4076;48.076;9.118;2023-03-24T13:06:52;3.13;;;0.90;;
8066;SDS011;4076;48.076;9.118;2023-03-24T13:09:50;3.60;;;1.03;;
8066;SDS011;4076;48.076;9.118;2023-03-24T13:20:45;3.00;;;0.97;;
8066;SDS011;4076;48.076;9.118;2023-03-24T13:28:52;2.97;;;0.80;;
8066;SDS011;4076;48.076;9.118;2023-03-24T13:31:23;3.00;;;0.93;;
8066;SDS011;4076;48.076;9.118;2023-03-24T13:33:52;2.67;;;0.73;;
8066;SDS011;4076;48.076;9.118;2023-03-24T13:39:05;2.93;;;1.00;;
8066;SDS011;4076;48.076;9.118;2023-03-24T13:41:38;3.00;;;1.00;;
8066;SDS011;4076;48.076;9.118;2023-03-24T13:44:07;3.60;;;1.50;;
8066;SDS011;4076;48.076;9.118;2023-03-24T13:46:41;3.10;;;0.97;;
8066;SDS011;4076;48.076;9.118;2023-03-24T13:49:10;3.20;;;1.00;;
8066;SDS011;4076;48.076;9.118;2023-03-24T13:51:40;4.77;;;1.30;;
8066;SDS011;4076;48.076;9.118;2023-03-24T13:54:17;3.83;;;1.30;;
8066;SDS011;4076;48.076;9.118;2023-03-24T13:56:59;3.30;;;1.20;;
8066;SDS011;4076;48.076;9.118;2023-03-24T13:59:58;3.57;;;1.43;;
8066;SDS011;4076;48.076;9.118;2023-03-24T14:02:44;4.63;;;1.30;;
8066;SDS011;4076;48.076;9.118;2023-03-24T14:07:47;4.20;;;1.40;;
8066;SDS011;4076;48.076;9.118;2023-03-24T14:13:17;4.50;;;1.80;;
8066;SDS011;4076;48.076;9.118;2023-03-24T14:15:54;18.60;;;8.40;;
8066;SDS011;4076;48.076;9.118;2023-03-24T14:23:22;6.10;;;2.20;;
8066;SDS011;4076;48.076;9.118;2023-03-24T14:28:50;3.40;;;0.90;;
8066;SDS011;4076;48.076;9.118;2023-03-24T14:31:19;3.70;;;1.00;;
8066;SDS011;4076;48.076;9.118;2023-03-24T14:36:28;3.23;;;0.93;;
8066;SDS011;4076;48.076;9.118;2023-03-24T14:39:22;2.93;;;0.80;;
8066;SDS011;4076;48.076;9.118;2023-03-24T14:44:57;3.40;;;0.90;;
8066;SDS011;4076;48.076;9.118;2023-03-24T14:47:24;3.30;;;0.90;;
8066;SDS011;4076;48.076;9.118;2023-03-24T14:49:54;2.90;;;0.80;;
8066;SDS011;4076;48.076;9.118;2023-03-24T14:52:28;3.00;;;0.80;;
8066;SDS011;4076;48.076;9.118;2023-03-24T14:54:58;4.70;;;2.10;;
8066;SDS011;4076;48.076;9.118;2023-03-24T14:57:33;4.30;;;2.20;;
8066;SDS011;4076;48.076;9.118;2023-03-24T15:00:07;4.90;;;1.90;;
8066;SDS011;4076;48.076;9.118;2023-03-24T15:02:40;3.40;;;1.10;;
8066;SDS011;4076;48.076;9.118;2023-03-24T15:10:59;7.93;;;4.50;;
8066;SDS011;4076;48.076;9.118;2023-03-24T15:13:34;8.90;;;4.47;;
8066;SDS011;4076;48.076;9.118;2023-03-24T15:21:45;3.80;;;1.40;;
8066;SDS011;4076;48.076;9.118;2023-03-24T15:24:22;3.50;;;1.20;;
8066;SDS011;4076;48.076;9.118;2023-03-24T15:27:38;3.13;;;1.10;;
8066;SDS011;4076;48.076;9.118;2023-03-24T15:29:41;3.27;;;1.10;;
8066;SDS011;4076;48.076;9.118;2023-03-24T15:32:14;4.07;;;1.17;;
8066;SDS011;4076;48.076;9.118;2023-03-24T15:34:48;3.70;;;1.20;;
8066;SDS011;4076;48.076;9.118;2023-03-24T15:37:19;4.10;;;1.83;;
8066;SDS011;4076;48.076;9.118;2023-03-24T15:39:51;5.07;;;1.73;;
8066;SDS011;4076;48.076;9.118;2023-03-24T15:42:21;3.37;;;1.13;;
8066;SDS011;4076;48.076;9.118;2023-03-24T15:44:48;4.13;;;1.40;;
8066;SDS011;4076;48.076;9.118;2023-03-24T15:47:22;2.97;;;0.97;;
8066;SDS011;4076;48.076;9.118;2023-03-24T15:49:52;2.87;;;0.93;;
8066;SDS011;4076;48.076;9.118;2023-03-24T15:52:28;3.27;;;1.40;;
8066;SDS011;4076;48.076;9.118;2023-03-24T15:55:00;4.13;;;1.00;;
8066;SDS011;4076;48.076;9.118;2023-03-24T15:57:36;4.40;;;1.80;;
8066;SDS011;4076;48.076;9.118;2023-03-24T16:00:06;3.23;;;1.50;;
8066;SDS011;4076;48.076;9.118;2023-03-24T16:02:56;3.50;;;1.40;;
8066;SDS011;4076;48.076;9.118;2023-03-24T16:05:27;3.50;;;1.20;;
8066;SDS011;4076;48.076;9.118;2023-03-24T16:10:27;3.67;;;1.40;;
8066;SDS011;4076;48.076;9.118;2023-03-24T16:13:11;4.60;;;1.43;;
8066;SDS011;4076;48.076;9.118;2023-03-24T16:15:47;3.70;;;1.40;;
8066;SDS011;4076;48.076;9.118;2023-03-24T16:18:17;5.40;;;1.77;;
8066;SDS011;4076;48.076;9.118;2023-03-24T16:20:46;3.80;;;1.67;;
8066;SDS011;4076;48.076;9.118;2023-03-24T16:23:12;3.43;;;1.33;;
8066;SDS011;4076;48.076;9.118;2023-03-24T16:25:38;3.63;;;1.20;;
8066;SDS011;4076;48.076;9.118;2023-03-24T16:28:03;3.50;;;1.47;;
8066;SDS011;4076;48.076;9.118;2023-03-24T16:30:31;4.43;;;1.37;;
8066;SDS011;4076;48.076;9.118;2023-03-24T16:33:02;3.13;;;1.27;;
8066;SDS011;4076;48.076;9.118;2023-03-24T16:35:28;3.30;;;1.30;;
8066;SDS011;4076;48.076;9.118;2023-03-24T16:37:54;3.30;;;1.30;;
8066;SDS011;4076;48.076;9.118;2023-03-24T16:40:20;3.47;;;1.40;;
8066;SDS011;4076;48.076;9.118;2023-03-24T16:42:54;4.30;;;2.10;;
8066;SDS011;4076;48.076;9.118;2023-03-24T16:45:20;3.97;;;1.80;;
8066;SDS011;4076;48.076;9.118;2023-03-24T16:47:46;4.90;;;1.40;;
8066;SDS011;4076;48.076;9.118;2023-03-24T16:50:31;4.93;;;1.93;;
8066;SDS011;4076;48.076;9.118;2023-03-24T16:53:00;4.50;;;1.50;;
8066;SDS011;4076;48.076;9.118;2023-03-24T16:55:27;2.80;;;0.90;;
8066;SDS011;4076;48.076;9.118;2023-03-24T16:57:53;2.97;;;1.20;;
8066;SDS011;4076;48.076;9.118;2023-03-24T17:00:19;3.20;;;1.33;;
8066;SDS011;4076;48.076;9.118;2023-03-24T17:02:44;3.70;;;1.23;;
8066;SDS011;4076;48.076;9.118;2023-03-24T17:05:17;5.30;;;1.80;;
8066;SDS011;4076;48.076;9.118;2023-03-24T17:07:45;3.17;;;1.23;;
8066;SDS011;4076;48.076;9.118;2023-03-24T17:10:11;3.00;;;1.10;;
8066;SDS011;4076;48.076;9.118;2023-03-24T17:12:37;3.90;;;2.17;;
8066;SDS011;4076;48.076;9.118;2023-03-24T17:15:03;3.77;;;1.50;;
8066;SDS011;4076;48.076;9.118;2023-03-24T17:17:29;4.30;;;1.70;;
8066;SDS011;4076;48.076;9.118;2023-03-24T17:19:54;3.77;;;1.43;;
8066;SDS011;4076;48.076;9.118;2023-03-24T17:22:22;3.40;;;1.10;;
8066;SDS011;4076;48.076;9.118;2023-03-24T17:24:49;4.20;;;1.20;;
8066;SDS011;4076;48.076;9.118;2023-03-24T17:27:16;3.30;;;1.20;;
8066;SDS011;4076;48.076;9.118;2023-03-24T17:29:43;3.37;;;1.27;;
8066;SDS011;4076;48.076;9.118;2023-03-24T17:32:10;3.40;;;1.50;;
8066;SDS011;4076;48.076;9.118;2023-03-24T17:34:36;3.40;;;1.30;;
8066;SDS011;4076;48.076;9.118;2023-03-24T17:37:02;5.27;;;1.20;;
8066;SDS011;4076;48.076;9.118;2023-03-24T17:39:30;3.33;;;1.43;;
8066;SDS011;4076;48.076;9.118;2023-03-24T17:41:56;3.90;;;1.87;;
8066;SDS011;4076;48.076;9.118;2023-03-24T17:44:25;3.10;;;1.30;;
8066;SDS011;4076;48.076;9.118;2023-03-24T17:46:51;4.37;;;1.60;;
8066;SDS011;4076;48.076;9.118;2023-03-24T17:49:16;3.43;;;1.20;;
8066;SDS011;4076;48.076;9.118;2023-03-24T17:51:42;3.60;;;1.50;;
8066;SDS011;4076;48.076;9.118;2023-03-24T17:54:07;7.77;;;2.57;;
8066;SDS011;4076;48.076;9.118;2023-03-24T17:56:34;3.60;;;1.53;;
8066;SDS011;4076;48.076;9.118;2023-03-24T17:59:00;3.67;;;1.87;;
8066;SDS011;4076;48.076;9.118;2023-03-24T18:01:27;3.27;;;1.47;;
8066;SDS011;4076;48.076;9.118;2023-03-24T18:03:53;3.67;;;1.50;;
8066;SDS011;4076;48.076;9.118;2023-03-24T18:06:19;3.60;;;1.70;;
8066;SDS011;4076;48.076;9.118;2023-03-24T18:08:45;3.87;;;2.00;;
8066;SDS011;4076;48.076;9.118;2023-03-24T18:11:12;4.60;;;1.60;;